createdAt,value
2018-07-30T04:28:13.828Z,101160.38
2018-07-30T04:33:09.804Z,101161.20
2018-07-30T04:38:07.588Z,101165.37
2018-07-30T04:43:02.634Z,101167.61
2018-07-30T04:47:58.352Z,101163.80
2018-07-30T04:53:39.140Z,101168.82
2018-07-30T05:03:39.506Z,101162.97
2018-07-30T05:10:14.944Z,101168.05
2018-07-30T05:14:46.715Z,101168.05
2018-07-30T05:18:56.978Z,101172.11
2018-07-30T05:24:07.360Z,101170.75
2018-07-30T05:29:11.488Z,101174.21
2018-07-30T05:35:02.183Z,101175.28
2018-07-30T05:40:07.477Z,101173.03
2018-07-30T05:45:03.694Z,101172.56
2018-07-30T05:49:59.441Z,101174.36
2018-07-30T05:54:55.281Z,101173.26
2018-07-30T05:59:51.456Z,101182.84
2018-07-30T06:04:47.095Z,101177.03
2018-07-30T06:09:43.231Z,101177.67
2018-07-30T06:14:35.937Z,101177.30
2018-07-30T06:19:31.445Z,101177.98
2018-07-30T06:24:24.305Z,101179.77
2018-07-30T06:29:17.789Z,101182.90
2018-07-30T06:34:11.183Z,101180.88
2018-07-30T06:39:04.352Z,101183.41
2018-07-30T06:43:57.848Z,101189.51
2018-07-30T06:48:51.342Z,101191.06
2018-07-30T06:53:44.660Z,101198.36
2018-07-30T06:58:37.725Z,101205.38
2018-07-30T07:03:31.313Z,101201.81
2018-07-30T07:08:24.708Z,101203.73
2018-07-30T07:13:18.328Z,101202.59
2018-07-30T07:18:11.845Z,101205.85
2018-07-30T07:23:05.319Z,101209.00
2018-07-30T07:27:58.817Z,101208.38
2018-07-30T07:32:51.904Z,101208.21
2018-07-30T07:37:45.097Z,101206.30
2018-07-30T07:42:38.385Z,101204.45
2018-07-30T07:47:31.716Z,101203.30
2018-07-30T07:52:25.111Z,101203.48
2018-07-30T07:57:19.828Z,101205.35
2018-07-30T08:02:13.252Z,101202.51
2018-07-30T08:07:07.125Z,101199.08
2018-07-30T08:12:00.615Z,101198.51
2018-07-30T08:16:54.081Z,101199.47
2018-07-30T08:21:47.639Z,101196.70
2018-07-30T08:26:41.248Z,101197.96
2018-07-30T08:31:34.838Z,101193.09
2018-07-30T08:36:29.409Z,101196.83
2018-07-30T08:41:22.985Z,101201.72
2018-07-30T08:46:16.667Z,101197.95
2018-07-30T08:51:10.471Z,101197.62
2018-07-30T08:56:04.259Z,101191.82
2018-07-30T09:00:57.936Z,101194.81
2018-07-30T09:05:51.800Z,101200.13
2018-07-30T09:10:45.549Z,101202.94
2018-07-30T09:15:38.959Z,101201.69
2018-07-30T09:20:32.584Z,101209.90
2018-07-30T09:25:26.717Z,101202.01
2018-07-30T09:30:20.398Z,101199.41
2018-07-30T09:35:14.405Z,101201.42
2018-07-30T09:40:09.104Z,101197.06
2018-07-30T09:45:03.722Z,101201.84
2018-07-30T09:49:58.169Z,101206.86
2018-07-30T09:54:51.454Z,101211.40
2018-07-30T09:59:45.082Z,101214.92
2018-07-30T10:04:38.324Z,101213.30
2018-07-30T10:09:31.653Z,101203.30
2018-07-30T10:14:25.203Z,101204.20
2018-07-30T10:19:19.136Z,101197.72
2018-07-30T10:24:16.136Z,101183.42
2018-07-30T10:29:08.334Z,101186.27
2018-07-30T10:34:02.693Z,101181.34
2018-07-30T10:38:55.650Z,101175.83
2018-07-30T10:43:48.941Z,101162.79
2018-07-30T10:48:45.562Z,101148.34
2018-07-30T10:53:39.571Z,101171.09
2018-07-30T10:58:32.453Z,101156.25
2018-07-30T11:03:26.183Z,101149.38
2018-07-30T11:08:19.991Z,101149.48
2018-07-30T11:13:15.645Z,101153.88
2018-07-30T11:18:09.362Z,101152.11
2018-07-30T11:23:03.540Z,101149.80
2018-07-30T11:27:59.926Z,101139.70
2018-07-30T11:32:53.539Z,101153.55
2018-07-30T11:37:47.408Z,101145.99
2018-07-30T11:42:42.866Z,101140.41
2018-07-30T11:47:38.374Z,101144.01
2018-07-30T11:52:34.195Z,101136.14
2018-07-30T11:57:29.705Z,101131.05
2018-07-30T12:02:23.454Z,101136.06
2018-07-30T12:07:21.121Z,101137.59
2018-07-30T12:12:15.575Z,101141.91
2018-07-30T12:17:10.017Z,101135.51
2018-07-30T12:22:04.877Z,101135.75
2018-07-30T12:26:59.589Z,101126.80
2018-07-30T12:31:54.653Z,101115.94
2018-07-30T12:36:48.180Z,101109.29
2018-07-30T12:41:43.185Z,101108.33
2018-07-30T12:46:35.601Z,101102.16
2018-07-30T12:51:32.308Z,101104.70
2018-07-30T12:56:28.643Z,101089.61
2018-07-30T13:01:25.067Z,101091.34
2018-07-30T13:06:21.402Z,101090.90
2018-07-30T13:11:15.473Z,101090.97
2018-07-30T13:16:11.329Z,101090.37
2018-07-30T13:21:07.804Z,101080.48
2018-07-30T13:26:02.882Z,101074.66
2018-07-30T13:30:57.463Z,101072.38
2018-07-30T13:35:51.888Z,101069.97
2018-07-30T13:40:46.665Z,101065.73
2018-07-30T13:45:40.940Z,101066.38
2018-07-30T13:50:36.132Z,101059.30
2018-07-30T13:55:30.511Z,101056.72
2018-07-30T14:00:23.635Z,101049.81
2018-07-30T14:05:17.333Z,101050.55
2018-07-30T14:10:13.101Z,101051.92
2018-07-30T14:15:06.036Z,101050.60
2018-07-30T14:20:03.373Z,101045.70
2018-07-30T14:24:59.532Z,101041.48
2018-07-30T14:29:54.951Z,101045.10
2018-07-30T14:34:50.938Z,101042.41
2018-07-30T14:39:45.845Z,101034.45
2018-07-30T14:44:41.174Z,101024.67
2018-07-30T14:49:36.014Z,101030.82
2018-07-30T14:54:31.716Z,101020.59
2018-07-30T14:59:27.357Z,101013.20
2018-07-30T15:04:23.091Z,101008.70
2018-07-30T15:09:18.770Z,100997.38
2018-07-30T15:14:18.143Z,100999.48
2018-07-30T15:19:13.218Z,101008.42
2018-07-30T15:24:08.590Z,100997.03
2018-07-30T15:29:05.049Z,101003.88
2018-07-30T15:34:00.478Z,101000.45
2018-07-30T15:38:54.960Z,100998.02
2018-07-30T15:43:50.822Z,100995.63
2018-07-30T15:48:47.608Z,100993.08
2018-07-30T15:53:44.039Z,100998.39
2018-07-30T15:58:38.932Z,100986.28
2018-07-30T16:03:33.021Z,100992.23
2018-07-30T16:08:27.693Z,100992.48
2018-07-30T16:13:22.356Z,100993.25
2018-07-30T16:18:18.441Z,100990.07
2018-07-30T16:23:13.739Z,100985.03
2018-07-30T16:28:08.250Z,100980.98
2018-07-30T16:33:03.662Z,100988.24
2018-07-30T16:37:58.512Z,100986.19
2018-07-30T16:42:56.776Z,100982.61
2018-07-30T16:47:49.220Z,100986.19
2018-07-30T16:52:46.642Z,100995.28
2018-07-30T16:57:38.864Z,100998.50
2018-07-30T17:02:34.955Z,100996.37
2018-07-30T17:07:29.896Z,100992.51
2018-07-30T17:12:23.939Z,100987.30
2018-07-30T17:17:18.460Z,100995.09
2018-07-30T17:22:11.359Z,100994.89
2018-07-30T17:27:04.897Z,100997.42
2018-07-30T17:31:58.237Z,100993.56
2018-07-30T17:36:53.918Z,100994.25
2018-07-30T17:41:49.072Z,100990.47
2018-07-30T17:46:42.663Z,100997.88
2018-07-30T17:51:36.987Z,100999.77
2018-07-30T17:56:30.055Z,101001.68
2018-07-30T18:01:25.532Z,101005.07
2018-07-30T18:06:21.170Z,101015.03
2018-07-30T18:11:16.278Z,101014.00
2018-07-30T18:16:12.103Z,101011.56
2018-07-30T18:21:04.848Z,101011.55
2018-07-30T18:25:59.257Z,101018.88
2018-07-30T18:30:52.620Z,101021.45
2018-07-30T18:35:45.985Z,101023.50
2018-07-30T18:40:39.652Z,101030.33
2018-07-30T18:45:33.129Z,101037.64
2018-07-30T18:50:27.040Z,101037.42
2018-07-30T18:55:21.356Z,101036.30
2018-07-30T19:00:14.627Z,101045.02
2018-07-30T19:05:07.888Z,101045.08
2018-07-30T19:10:01.245Z,101050.98
2018-07-30T19:14:54.416Z,101059.84
2018-07-30T19:19:47.478Z,101063.14
2018-07-30T19:24:40.982Z,101072.75
2018-07-30T19:29:34.422Z,101078.97
2018-07-30T19:34:27.892Z,101078.38
2018-07-30T19:39:21.288Z,101084.35
2018-07-30T19:44:15.284Z,101081.76
2018-07-30T19:49:09.429Z,101088.09
2018-07-30T19:54:02.390Z,101094.38
2018-07-30T19:58:57.220Z,101097.38
2018-07-30T20:03:50.512Z,101104.90
2018-07-30T20:08:43.729Z,101107.97
2018-07-30T20:13:37.059Z,101110.58
2018-07-30T20:18:30.417Z,101115.91
2018-07-30T20:23:23.612Z,101119.44
